Time;durP1;ratioP1;P1;durP2;ratioP2;P2;SDS_P1;SDS_P2;PMS_P1;PMS_P2;Temp;Humidity;BMP_temperature;BMP_pressure;BME280_temperature;BME280_humidity;BME280_pressure;Samples;Min_cycle;Max_cycle;Signal;HPM_P1;HPM_P2
2022/05/11 00:00:10;;;;;;;0.00;0.00;;;;;;;;;;6253209;23;20183;-75
2022/05/11 00:02:37;;;;;;;0.10;0.10;;;;;;;;;;6253922;23;20246;-74
2022/05/11 00:05:04;;;;;;;0.00;0.00;;;;;;;;;;6255665;23;20511;-74
2022/05/11 00:07:30;;;;;;;0.00;0.00;;;;;;;;;;6213658;23;20178;-74
2022/05/11 00:09:56;;;;;;;0.00;0.00;;;;;;;;;;6255542;23;20558;-74
2022/05/11 00:12:22;;;;;;;0.00;0.00;;;;;;;;;;6238690;22;20255;-73
2022/05/11 00:14:50;;;;;;;0.00;0.00;;;;;;;;;;6255496;23;20220;-74
2022/05/11 00:17:16;;;;;;;0.00;0.00;;;;;;;;;;6238772;22;20214;-73
2022/05/11 00:19:43;;;;;;;0.00;0.00;;;;;;;;;;6255044;23;20178;-74
2022/05/11 00:22:09;;;;;;;0.00;0.00;;;;;;;;;;6238989;22;20209;-73
2022/05/11 00:24:36;;;;;;;0.00;0.00;;;;;;;;;;6255425;23;20228;-74
2022/05/11 00:27:02;;;;;;;0.00;0.00;;;;;;;;;;6238803;22;20213;-75
2022/05/11 00:29:31;;;;;;;0.00;0.00;;;;;;;;;;6255370;22;20184;-74
2022/05/11 00:31:59;;;;;;;0.00;0.00;;;;;;;;;;6238584;22;20211;-75
2022/05/11 00:34:25;;;;;;;0.00;0.00;;;;;;;;;;6255041;23;20180;-74
2022/05/11 00:36:52;;;;;;;0.00;0.00;;;;;;;;;;6238873;22;20214;-74
2022/05/11 00:39:18;;;;;;;0.00;0.00;;;;;;;;;;6255233;23;20188;-73
2022/05/11 00:41:44;;;;;;;0.00;0.00;;;;;;;;;;6238792;22;20390;-74
2022/05/11 00:44:12;;;;;;;0.05;0.05;;;;;;;;;;6254868;23;20188;-75
2022/05/11 00:46:42;;;;;;;0.00;0.00;;;;;;;;;;6238797;22;20276;-74
2022/05/11 00:51:57;;;;;;;0.00;0.00;;;;;;;;;;6238677;22;20336;-74
2022/05/11 00:54:24;;;;;;;0.00;0.00;;;;;;;;;;6255075;23;20335;-75
2022/05/11 00:56:51;;;;;;;0.10;0.10;;;;;;;;;;6238689;22;20214;-74
2022/05/11 00:59:20;;;;;;;0.00;0.00;;;;;;;;;;6255172;23;20181;-74
2022/05/11 01:01:46;;;;;;;0.00;0.00;;;;;;;;;;6238949;22;20531;-73
2022/05/11 01:04:15;;;;;;;0.00;0.00;;;;;;;;;;6254733;23;20174;-73
2022/05/11 01:06:42;;;;;;;0.10;0.10;;;;;;;;;;6238761;22;20215;-74
2022/05/11 01:09:10;;;;;;;0.10;0.10;;;;;;;;;;6254903;23;20182;-73
2022/05/11 01:11:37;;;;;;;0.00;0.00;;;;;;;;;;6238780;22;20217;-75
2022/05/11 01:14:06;;;;;;;0.10;0.10;;;;;;;;;;6254398;22;20179;-74
2022/05/11 01:16:32;;;;;;;0.00;0.00;;;;;;;;;;6239600;22;20247;-74
2022/05/11 01:18:59;;;;;;;0.00;0.00;;;;;;;;;;6256724;23;20248;-74
2022/05/11 01:21:30;;;;;;;0.00;0.00;;;;;;;;;;6241149;22;20235;-74
2022/05/11 01:23:59;;;;;;;0.00;0.00;;;;;;;;;;6256711;23;20187;-74
2022/05/11 01:26:27;;;;;;;0.00;0.00;;;;;;;;;;6241028;22;20217;-74
2022/05/11 01:28:54;;;;;;;0.00;0.00;;;;;;;;;;6256394;23;20198;-76
2022/05/11 01:31:21;;;;;;;0.00;0.00;;;;;;;;;;6240775;22;20214;-75
2022/05/11 01:33:48;;;;;;;0.00;0.00;;;;;;;;;;6256470;23;20224;-75
2022/05/11 01:36:19;;;;;;;0.00;0.00;;;;;;;;;;6240951;22;20270;-73
2022/05/11 01:38:46;;;;;;;0.00;0.00;;;;;;;;;;6256524;23;20179;-75
2022/05/11 01:41:14;;;;;;;0.00;0.00;;;;;;;;;;6241024;22;20523;-73
2022/05/11 01:43:41;;;;;;;0.05;0.05;;;;;;;;;;6256453;23;20392;-74
2022/05/11 01:46:08;;;;;;;0.00;0.00;;;;;;;;;;6241165;22;20212;-74
2022/05/11 01:48:35;;;;;;;0.00;0.00;;;;;;;;;;6256161;23;20228;-74
2022/05/11 01:51:01;;;;;;;0.00;0.00;;;;;;;;;;6240599;22;20237;-74
2022/05/11 01:53:28;;;;;;;0.00;0.00;;;;;;;;;;6256024;23;20340;-72
2022/05/11 01:55:54;;;;;;;0.00;0.00;;;;;;;;;;6241173;22;20559;-74
2022/05/11 01:58:21;;;;;;;0.00;0.00;;;;;;;;;;6255998;23;20182;-73
2022/05/11 02:00:48;;;;;;;0.10;0.10;;;;;;;;;;6241244;22;20217;-74
2022/05/11 02:03:17;;;;;;;0.00;0.00;;;;;;;;;;6255678;23;20195;-75
2022/05/11 02:08:28;;;;;;;0.00;0.00;;;;;;;;;;6256040;23;20187;-76
2022/05/11 02:10:54;;;;;;;0.03;0.03;;;;;;;;;;6241086;22;20269;-75
2022/05/11 02:13:21;;;;;;;0.00;0.00;;;;;;;;;;6255867;23;20542;-74
2022/05/11 02:15:49;;;;;;;0.10;0.10;;;;;;;;;;6241131;22;20230;-74
2022/05/11 02:18:16;;;;;;;0.08;0.08;;;;;;;;;;6255242;22;20178;-74
2022/05/11 02:20:42;;;;;;;0.00;0.00;;;;;;;;;;6241128;22;20213;-74
2022/05/11 02:23:08;;;;;;;0.10;0.10;;;;;;;;;;6255703;23;20170;-74
2022/05/11 02:25:35;;;;;;;0.00;0.00;;;;;;;;;;6241077;22;20210;-74
2022/05/11 02:28:01;;;;;;;0.00;0.00;;;;;;;;;;6255027;23;20342;-74
2022/05/11 02:30:28;;;;;;;0.05;0.05;;;;;;;;;;6241433;22;20508;-74
2022/05/11 02:32:56;;;;;;;0.00;0.00;;;;;;;;;;6255293;23;20249;-74
2022/05/11 02:35:23;;;;;;;0.00;0.00;;;;;;;;;;6241277;22;20178;-74
2022/05/11 02:37:52;;;;;;;0.05;0.05;;;;;;;;;;6255326;23;20216;-74
2022/05/11 02:40:19;;;;;;;0.00;0.00;;;;;;;;;;6240675;22;20206;-74
2022/05/11 02:42:45;;;;;;;0.00;0.00;;;;;;;;;;6255409;23;20388;-75
2022/05/11 02:45:12;;;;;;;0.00;0.00;;;;;;;;;;6241359;22;20187;-74
2022/05/11 02:47:39;;;;;;;0.00;0.00;;;;;;;;;;6254619;22;20173;-75
2022/05/11 02:50:07;;;;;;;0.00;0.00;;;;;;;;;;6249414;23;20223;-74
2022/05/11 02:52:34;;;;;;;0.10;0.10;;;;;;;;;;6254423;22;20241;-74
2022/05/11 02:55:00;;;;;;;0.00;0.00;;;;;;;;;;6255934;23;20221;-73
2022/05/11 02:57:27;;;;;;;0.00;0.00;;;;;;;;;;6239526;22;20589;-74
2022/05/11 02:59:53;;;;;;;0.03;0.03;;;;;;;;;;6256273;23;20182;-73
2022/05/11 03:02:20;;;;;;;0.08;0.08;;;;;;;;;;6237935;22;20212;-74
2022/05/11 03:04:46;;;;;;;0.00;0.00;;;;;;;;;;6255481;23;20187;-73
2022/05/11 03:07:14;;;;;;;0.10;0.10;;;;;;;;;;6239605;22;20427;-74
2022/05/11 03:09:40;;;;;;;0.00;0.00;;;;;;;;;;6256037;23;20494;-75
2022/05/11 03:12:07;;;;;;;0.05;0.05;;;;;;;;;;6239282;22;20283;-75
2022/05/11 03:14:33;;;;;;;0.00;0.00;;;;;;;;;;6255730;23;20181;-73
2022/05/11 03:17:00;;;;;;;0.00;0.00;;;;;;;;;;6239072;22;20213;-75
2022/05/11 03:19:27;;;;;;;0.00;0.00;;;;;;;;;;6255639;23;20240;-74
2022/05/11 03:21:53;;;;;;;0.00;0.00;;;;;;;;;;6239495;22;20214;-73
2022/05/11 03:24:21;;;;;;;0.00;0.00;;;;;;;;;;6255836;23;20241;-75
2022/05/11 03:26:47;;;;;;;0.00;0.00;;;;;;;;;;6239377;22;20230;-75
2022/05/11 03:29:14;;;;;;;0.00;0.00;;;;;;;;;;6255234;23;20188;-73
2022/05/11 03:31:41;;;;;;;0.00;0.00;;;;;;;;;;6239537;22;20209;-74
2022/05/11 03:37:00;;;;;;;0.00;0.00;;;;;;;;;;6203710;23;20263;-75
2022/05/11 03:39:27;;;;;;;0.10;0.10;;;;;;;;;;6255557;23;20181;-74
2022/05/11 03:41:53;;;;;;;0.03;0.03;;;;;;;;;;6239465;22;20279;-75
2022/05/11 03:44:20;;;;;;;0.00;0.00;;;;;;;;;;6255593;23;20216;-74
2022/05/11 03:46:46;;;;;;;0.03;0.03;;;;;;;;;;6239288;22;20450;-74
2022/05/11 03:49:12;;;;;;;0.15;0.15;;;;;;;;;;6255583;23;20181;-74
2022/05/11 03:51:38;;;;;;;0.10;0.10;;;;;;;;;;6239281;22;20207;-74
2022/05/11 03:54:05;;;;;;;0.00;0.00;;;;;;;;;;6255464;23;20492;-74
2022/05/11 03:56:33;;;;;;;0.00;0.00;;;;;;;;;;6239634;22;20257;-73
2022/05/11 03:58:59;;;;;;;0.00;0.00;;;;;;;;;;6254775;23;20180;-74
2022/05/11 04:01:25;;;;;;;0.00;0.00;;;;;;;;;;6239396;22;20259;-74
2022/05/11 04:03:51;;;;;;;0.05;0.05;;;;;;;;;;6255086;23;20183;-73
2022/05/11 04:06:18;;;;;;;0.10;0.10;;;;;;;;;;6239242;22;20745;-74
2022/05/11 04:08:44;;;;;;;0.00;0.00;;;;;;;;;;6254695;23;20166;-74
2022/05/11 04:11:11;;;;;;;0.00;0.00;;;;;;;;;;6239351;22;20589;-75
2022/05/11 04:13:40;;;;;;;0.00;0.00;;;;;;;;;;6254460;23;20201;-74
2022/05/11 04:16:07;;;;;;;0.00;0.00;;;;;;;;;;6239630;22;20251;-75
2022/05/11 04:18:33;;;;;;;0.00;0.00;;;;;;;;;;6254582;23;20459;-74
2022/05/11 04:21:00;;;;;;;0.00;0.00;;;;;;;;;;6239318;22;20221;-74
2022/05/11 04:23:26;;;;;;;0.00;0.00;;;;;;;;;;6254402;23;20180;-74
2022/05/11 04:25:52;;;;;;;0.03;0.03;;;;;;;;;;6239824;22;20313;-74
2022/05/11 04:28:18;;;;;;;0.00;0.00;;;;;;;;;;6254516;23;20167;-74
2022/05/11 04:30:46;;;;;;;0.00;0.00;;;;;;;;;;6239451;22;20217;-75
2022/05/11 04:33:12;;;;;;;0.10;0.10;;;;;;;;;;6254377;23;20202;-74
2022/05/11 04:35:39;;;;;;;0.00;0.00;;;;;;;;;;6239959;22;20254;-75
2022/05/11 04:38:06;;;;;;;0.08;0.08;;;;;;;;;;6254578;23;20515;-74
2022/05/11 04:40:34;;;;;;;0.05;0.05;;;;;;;;;;6239794;22;20213;-74
2022/05/11 04:43:05;;;;;;;0.00;0.00;;;;;;;;;;6254212;23;20368;-73
2022/05/11 04:45:32;;;;;;;0.10;0.10;;;;;;;;;;6239746;22;20242;-74
2022/05/11 04:47:59;;;;;;;0.03;0.03;;;;;;;;;;6253652;23;20178;-75
2022/05/11 04:50:25;;;;;;;0.00;0.00;;;;;;;;;;6240234;22;20296;-74
2022/05/11 04:52:52;;;;;;;0.00;0.00;;;;;;;;;;6256000;23;20521;-74
2022/05/11 04:55:19;;;;;;;0.00;0.00;;;;;;;;;;6242257;22;20186;-74
2022/05/11 04:57:45;;;;;;;0.00;0.00;;;;;;;;;;6256441;23;20345;-74
2022/05/11 05:00:12;;;;;;;0.00;0.00;;;;;;;;;;6242253;22;20316;-74
2022/05/11 05:02:39;;;;;;;0.00;0.00;;;;;;;;;;6255792;22;20238;-74
2022/05/11 05:05:09;;;;;;;0.00;0.00;;;;;;;;;;6248512;23;20209;-74
2022/05/11 05:07:36;;;;;;;0.00;0.00;;;;;;;;;;6255793;23;20201;-74
2022/05/11 05:10:02;;;;;;;0.10;0.10;;;;;;;;;;6257265;23;20351;-74
2022/05/11 05:12:28;;;;;;;0.00;0.00;;;;;;;;;;6240579;22;20521;-74
2022/05/11 05:14:55;;;;;;;0.00;0.00;;;;;;;;;;6257336;23;20203;-74
2022/05/11 05:17:21;;;;;;;0.10;0.10;;;;;;;;;;6240031;22;20212;-73
2022/05/11 05:19:49;;;;;;;0.00;0.00;;;;;;;;;;6257351;23;20218;-74
2022/05/11 05:22:17;;;;;;;0.10;0.10;;;;;;;;;;6240847;22;20218;-74
2022/05/11 05:24:44;;;;;;;0.05;0.05;;;;;;;;;;6256817;23;20215;-74
2022/05/11 05:27:11;;;;;;;0.03;0.03;;;;;;;;;;6240674;22;20222;-73
2022/05/11 05:32:21;;;;;;;0.00;0.00;;;;;;;;;;6240609;22;20259;-74
2022/05/11 05:34:48;;;;;;;0.03;0.03;;;;;;;;;;6257410;23;20182;-73
2022/05/11 05:37:15;;;;;;;0.00;0.00;;;;;;;;;;6240471;22;20267;-74
2022/05/11 05:39:43;;;;;;;0.00;0.00;;;;;;;;;;6257519;23;20227;-74
2022/05/11 05:42:09;;;;;;;0.00;0.00;;;;;;;;;;6240308;22;20215;-75
2022/05/11 05:44:37;;;;;;;0.00;0.00;;;;;;;;;;6257083;23;20208;-75
2022/05/11 05:47:04;;;;;;;0.00;0.00;;;;;;;;;;6240313;22;20214;-74
2022/05/11 05:49:30;;;;;;;0.00;0.00;;;;;;;;;;6257227;23;20189;-74
2022/05/11 05:51:57;;;;;;;0.10;0.10;;;;;;;;;;6240483;22;20281;-74
2022/05/11 05:54:23;;;;;;;0.00;0.00;;;;;;;;;;6257155;23;20263;-74
2022/05/11 05:56:50;;;;;;;0.00;0.00;;;;;;;;;;6240499;22;20222;-74
2022/05/11 05:59:17;;;;;;;0.00;0.00;;;;;;;;;;6256819;23;20184;-74
2022/05/11 06:01:44;;;;;;;0.00;0.00;;;;;;;;;;6239742;22;20212;-74
2022/05/11 06:04:10;;;;;;;0.10;0.10;;;;;;;;;;6255924;23;20490;-74
2022/05/11 06:06:36;;;;;;;0.05;0.05;;;;;;;;;;6240344;22;20296;-74
2022/05/11 06:09:03;;;;;;;0.00;0.00;;;;;;;;;;6256128;23;20167;-75
2022/05/11 06:11:29;;;;;;;0.03;0.03;;;;;;;;;;6240461;22;20214;-74
2022/05/11 06:13:59;;;;;;;0.00;0.00;;;;;;;;;;6255727;23;20200;-74
2022/05/11 06:16:25;;;;;;;0.00;0.00;;;;;;;;;;6240171;22;20435;-75
2022/05/11 06:18:53;;;;;;;0.00;0.00;;;;;;;;;;6256175;23;20245;-73
2022/05/11 06:21:19;;;;;;;0.10;0.10;;;;;;;;;;6240421;22;20213;-75
2022/05/11 06:23:46;;;;;;;0.00;0.00;;;;;;;;;;6255966;23;20177;-75
2022/05/11 06:26:16;;;;;;;0.00;0.00;;;;;;;;;;6240500;22;20247;-76
2022/05/11 06:28:43;;;;;;;0.00;0.00;;;;;;;;;;6255771;23;20226;-75
2022/05/11 06:31:11;;;;;;;0.00;0.00;;;;;;;;;;6240985;22;20211;-75
2022/05/11 06:33:38;;;;;;;0.00;0.00;;;;;;;;;;6255903;22;20202;-75
2022/05/11 06:36:05;;;;;;;0.00;0.00;;;;;;;;;;6239936;23;20211;-75
2022/05/11 06:38:31;;;;;;;0.00;0.00;;;;;;;;;;6255811;23;20244;-74
2022/05/11 06:41:05;;;;;;;0.00;0.00;;;;;;;;;;6240827;22;20216;-74
2022/05/11 06:43:32;;;;;;;0.00;0.00;;;;;;;;;;6255864;23;20175;-74
2022/05/11 06:45:59;;;;;;;0.00;0.00;;;;;;;;;;6240545;22;20435;-75
2022/05/11 06:48:29;;;;;;;0.05;0.05;;;;;;;;;;6255604;22;20177;-74
2022/05/11 06:50:56;;;;;;;0.05;0.05;;;;;;;;;;6239582;22;20274;-73
2022/05/11 06:59:16;;;;;;;0.00;0.00;;;;;;;;;;6255191;22;20507;-73
2022/05/11 06:59:21;;;;;;;0.10;0.10;;;;;;;;;;6256339;23;20486;-74
2022/05/11 07:01:47;;;;;;;3.70;3.53;;;;;;;;;;6239666;22;20243;-74
2022/05/11 07:04:15;;;;;;;0.10;0.10;;;;;;;;;;6255845;23;20408;-74
2022/05/11 07:06:41;;;;;;;0.00;0.00;;;;;;;;;;6239575;22;20218;-74
2022/05/11 07:09:08;;;;;;;0.10;0.10;;;;;;;;;;6255831;23;20234;-74
2022/05/11 07:14:18;;;;;;;0.00;0.00;;;;;;;;;;6255667;23;20279;-74
2022/05/11 07:16:44;;;;;;;0.00;0.00;;;;;;;;;;6239771;22;20211;-75
2022/05/11 07:19:13;;;;;;;0.00;0.00;;;;;;;;;;6255644;23;20181;-75
2022/05/11 07:21:40;;;;;;;0.10;0.10;;;;;;;;;;6239558;22;20433;-73
2022/05/11 07:24:07;;;;;;;0.00;0.00;;;;;;;;;;6255721;23;20188;-73
2022/05/11 07:26:33;;;;;;;0.00;0.00;;;;;;;;;;6239611;22;20283;-73
2022/05/11 07:28:59;;;;;;;0.05;0.05;;;;;;;;;;6255442;23;20165;-73
2022/05/11 07:31:25;;;;;;;0.00;0.00;;;;;;;;;;6238855;22;20246;-72
2022/05/11 07:33:52;;;;;;;0.05;0.05;;;;;;;;;;6255220;23;20501;-72
2022/05/11 07:36:19;;;;;;;0.40;0.40;;;;;;;;;;6239683;22;20437;-74
2022/05/11 07:38:47;;;;;;;0.00;0.00;;;;;;;;;;6255290;23;20203;-73
2022/05/11 07:41:13;;;;;;;0.00;0.00;;;;;;;;;;6239528;22;20214;-73
2022/05/11 07:43:39;;;;;;;0.00;0.00;;;;;;;;;;6254934;23;20220;-73
2022/05/11 07:46:06;;;;;;;0.00;0.00;;;;;;;;;;6239694;22;20322;-74
2022/05/11 07:48:33;;;;;;;0.10;0.10;;;;;;;;;;6255092;23;20224;-75
2022/05/11 07:50:59;;;;;;;0.10;0.10;;;;;;;;;;6240000;22;20362;-74
2022/05/11 07:53:26;;;;;;;0.03;0.03;;;;;;;;;;6254878;23;20199;-75
2022/05/11 08:01:18;;;;;;;0.00;0.00;;;;;;;;;;6239512;22;20483;-74
2022/05/11 08:03:44;;;;;;;0.10;0.10;;;;;;;;;;6255165;23;20433;-74
2022/05/11 08:06:10;;;;;;;0.10;0.10;;;;;;;;;;6239767;22;20251;-74
2022/05/11 08:08:37;;;;;;;0.28;0.28;;;;;;;;;;6254955;23;20185;-75
2022/05/11 08:11:04;;;;;;;0.00;0.00;;;;;;;;;;6239587;22;20267;-74
2022/05/11 08:13:31;;;;;;;0.00;0.00;;;;;;;;;;6254760;23;20207;-74
2022/05/11 08:15:58;;;;;;;0.00;0.00;;;;;;;;;;6239772;22;20210;-73
2022/05/11 08:18:24;;;;;;;0.00;0.00;;;;;;;;;;6254273;23;20231;-74
2022/05/11 08:20:50;;;;;;;0.20;0.20;;;;;;;;;;6239718;22;20543;-73
2022/05/11 08:23:17;;;;;;;0.00;0.00;;;;;;;;;;6254591;23;20398;-73
2022/05/11 08:25:46;;;;;;;0.00;0.00;;;;;;;;;;6239289;22;20278;-73
2022/05/11 08:28:14;;;;;;;0.00;0.00;;;;;;;;;;6254634;23;20486;-73
2022/05/11 08:33:27;;;;;;;0.00;0.00;;;;;;;;;;6254371;23;20237;-73
2022/05/11 08:35:55;;;;;;;25.55;3.70;;;;;;;;;;6239544;22;20260;-73
2022/05/11 08:38:22;;;;;;;3.53;3.35;;;;;;;;;;6254675;23;20422;-73
2022/05/11 08:40:51;;;;;;;0.00;0.00;;;;;;;;;;6239591;22;20220;-74
2022/05/11 08:43:20;;;;;;;0.00;0.00;;;;;;;;;;6254075;23;20175;-74
2022/05/11 08:45:50;;;;;;;0.00;0.00;;;;;;;;;;6239751;22;20212;-72
2022/05/11 08:48:18;;;;;;;0.00;0.00;;;;;;;;;;6254231;23;20167;-75
2022/05/11 08:50:46;;;;;;;0.22;0.22;;;;;;;;;;6239564;22;20222;-75
2022/05/11 08:53:19;;;;;;;0.00;0.00;;;;;;;;;;6254105;23;20203;-73
2022/05/11 08:55:47;;;;;;;0.00;0.00;;;;;;;;;;6239683;22;20397;-75
2022/05/11 08:58:17;;;;;;;0.10;0.10;;;;;;;;;;6253953;23;20173;-73
2022/05/11 09:00:44;;;;;;;0.00;0.00;;;;;;;;;;6239229;22;20452;-75
2022/05/11 09:03:15;;;;;;;0.10;0.10;;;;;;;;;;6253993;23;20481;-74
2022/05/11 09:05:42;;;;;;;0.00;0.00;;;;;;;;;;6239782;22;20272;-74
2022/05/11 09:08:09;;;;;;;1.75;1.65;;;;;;;;;;6253980;23;20224;-73
2022/05/11 09:10:38;;;;;;;0.00;0.00;;;;;;;;;;6240099;22;20212;-76
2022/05/11 09:13:06;;;;;;;0.00;0.00;;;;;;;;;;6253961;23;20478;-76
2022/05/11 09:15:49;;;;;;;0.10;0.10;;;;;;;;;;6239648;22;20212;-74
2022/05/11 09:18:17;;;;;;;0.08;0.08;;;;;;;;;;6253532;23;20166;-74
2022/05/11 09:20:45;;;;;;;0.00;0.00;;;;;;;;;;6239541;22;20521;-74
2022/05/11 09:23:12;;;;;;;0.10;0.10;;;;;;;;;;6254386;23;20177;-74
2022/05/11 09:25:53;;;;;;;0.00;0.00;;;;;;;;;;6239235;22;20214;-74
2022/05/11 09:28:20;;;;;;;0.05;0.05;;;;;;;;;;6254488;23;20215;-75
2022/05/11 09:30:57;;;;;;;0.00;0.00;;;;;;;;;;6239440;22;20467;-74
2022/05/11 09:33:30;;;;;;;0.00;0.00;;;;;;;;;;6254128;23;20251;-74
2022/05/11 09:35:56;;;;;;;0.10;0.10;;;;;;;;;;6239298;22;20213;-74
2022/05/11 09:38:33;;;;;;;0.00;0.00;;;;;;;;;;6255582;23;20186;-74
2022/05/11 09:41:00;;;;;;;0.00;0.00;;;;;;;;;;6241622;22;20456;-74
2022/05/11 09:43:28;;;;;;;0.00;0.00;;;;;;;;;;6256345;23;20209;-73
2022/05/11 09:45:55;;;;;;;0.00;0.00;;;;;;;;;;6241421;22;20542;-73
2022/05/11 09:48:23;;;;;;;0.05;0.05;;;;;;;;;;6256111;23;20197;-74
2022/05/11 09:50:53;;;;;;;0.00;0.00;;;;;;;;;;6241550;22;20481;-73
2022/05/11 09:53:25;;;;;;;0.10;0.10;;;;;;;;;;6256206;23;20506;-75
2022/05/11 09:55:52;;;;;;;0.00;0.00;;;;;;;;;;6241185;22;20266;-73
2022/05/11 09:58:33;;;;;;;0.00;0.00;;;;;;;;;;6255658;22;20482;-74
2022/05/11 10:01:18;;;;;;;0.00;0.00;;;;;;;;;;6238573;23;20214;-75
2022/05/11 10:03:51;;;;;;;2.45;2.35;;;;;;;;;;6256185;23;20186;-73
2022/05/11 10:06:20;;;;;;;0.00;0.00;;;;;;;;;;6239744;23;20233;-74
2022/05/11 10:08:48;;;;;;;0.00;0.00;;;;;;;;;;6256242;23;20189;-73
2022/05/11 10:11:18;;;;;;;0.00;0.00;;;;;;;;;;6240856;22;20459;-73
2022/05/11 10:13:47;;;;;;;0.00;0.00;;;;;;;;;;6256042;23;20187;-74
2022/05/11 10:21:53;;;;;;;0.00;0.00;;;;;;;;;;6239679;22;20536;-75
2022/05/11 10:24:25;;;;;;;0.57;0.57;;;;;;;;;;6256268;23;20226;-75
2022/05/11 10:26:57;;;;;;;0.30;0.30;;;;;;;;;;6240538;22;20227;-74
2022/05/11 10:29:29;;;;;;;0.00;0.00;;;;;;;;;;6256204;22;20532;-74
2022/05/11 10:32:00;;;;;;;0.00;0.00;;;;;;;;;;6240163;22;20257;-74
2022/05/11 10:34:32;;;;;;;0.00;0.00;;;;;;;;;;6256143;23;20196;-72
2022/05/11 10:37:05;;;;;;;0.00;0.00;;;;;;;;;;6239950;22;20211;-73
2022/05/11 10:39:38;;;;;;;0.00;0.00;;;;;;;;;;6256771;23;20179;-74
2022/05/11 10:42:14;;;;;;;0.00;0.00;;;;;;;;;;6240021;22;20238;-74
2022/05/11 10:44:53;;;;;;;0.00;0.00;;;;;;;;;;6256571;22;20387;-74
2022/05/11 10:47:29;;;;;;;0.10;0.10;;;;;;;;;;6240275;22;20218;-73
2022/05/11 10:50:03;;;;;;;0.00;0.00;;;;;;;;;;6255476;23;20182;-74
2022/05/11 10:52:42;;;;;;;0.00;0.00;;;;;;;;;;6239743;22;20218;-73
2022/05/11 10:55:17;;;;;;;0.00;0.00;;;;;;;;;;6241711;22;20199;-74
2022/05/11 10:57:48;;;;;;;0.00;0.00;;;;;;;;;;6255073;23;20214;-74
2022/05/11 11:00:15;;;;;;;0.00;0.00;;;;;;;;;;6241308;22;20453;-74
2022/05/11 11:03:06;;;;;;;0.00;0.00;;;;;;;;;;6254956;22;20232;-73
2022/05/11 11:07:10;;;;;;;0.00;0.00;;;;;;;;;;6241470;22;20212;-73
2022/05/11 11:08:42;;;;;;;0.00;0.00;;;;;;;;;;6255762;23;20266;-74
2022/05/11 11:11:20;;;;;;;0.00;0.00;;;;;;;;;;6240354;22;20226;-74
2022/05/11 11:13:51;;;;;;;0.00;0.00;;;;;;;;;;6255488;22;20413;-73
2022/05/11 11:16:29;;;;;;;0.00;0.00;;;;;;;;;;6239456;23;20261;-72
2022/05/11 11:18:57;;;;;;;0.40;0.40;;;;;;;;;;6255752;23;20455;-72
2022/05/11 11:21:25;;;;;;;0.00;0.00;;;;;;;;;;6196143;23;20410;-72
2022/05/11 11:24:17;;;;;;;0.00;0.00;;;;;;;;;;6163368;23;20181;-72
2022/05/11 11:26:50;;;;;;;0.00;0.00;;;;;;;;;;6147739;23;20213;-73
2022/05/11 11:29:22;;;;;;;0.00;0.00;;;;;;;;;;6163219;23;20504;-72
2022/05/11 11:32:03;;;;;;;0.00;0.00;;;;;;;;;;6148424;23;20229;-72
2022/05/11 11:34:31;;;;;;;0.00;0.00;;;;;;;;;;6163261;23;20410;-72
2022/05/11 11:36:58;;;;;;;4.95;4.68;;;;;;;;;;6148560;23;20436;-72
2022/05/11 11:39:43;;;;;;;0.00;0.00;;;;;;;;;;6163308;23;20270;-73
2022/05/11 11:42:29;;;;;;;0.00;0.00;;;;;;;;;;6148369;23;20287;-73
2022/05/11 11:44:56;;;;;;;0.00;0.00;;;;;;;;;;6162872;23;20166;-73
2022/05/11 11:47:38;;;;;;;0.00;0.00;;;;;;;;;;6197237;23;20211;-71
2022/05/11 11:50:09;;;;;;;0.00;0.00;;;;;;;;;;6255791;23;20179;-73
2022/05/11 11:52:36;;;;;;;0.00;0.00;;;;;;;;;;6214139;23;20186;-71
2022/05/11 11:55:08;;;;;;;0.00;0.00;;;;;;;;;;6255573;23;20188;-72
2022/05/11 11:57:38;;;;;;;0.10;0.10;;;;;;;;;;6238894;22;20218;-72
2022/05/11 12:00:18;;;;;;;0.00;0.00;;;;;;;;;;6255582;23;20167;-71
2022/05/11 12:02:47;;;;;;;0.00;0.00;;;;;;;;;;6255966;23;20391;-74
2022/05/11 12:05:24;;;;;;;0.00;0.00;;;;;;;;;;6240083;22;20182;-75
2022/05/11 12:16:24;;;;;;;0.60;0.45;;;;;;;;;;6239774;22;20282;-73
2022/05/11 12:18:51;;;;;;;0.08;0.08;;;;;;;;;;6255649;23;20186;-75
2022/05/11 12:21:25;;;;;;;0.00;0.00;;;;;;;;;;6239945;22;20250;-74
2022/05/11 12:23:51;;;;;;;0.00;0.00;;;;;;;;;;6255416;23;20179;-74
2022/05/11 12:26:21;;;;;;;0.00;0.00;;;;;;;;;;6239777;22;20275;-73
2022/05/11 12:28:49;;;;;;;0.10;0.10;;;;;;;;;;6255102;23;20159;-74
2022/05/11 12:31:26;;;;;;;0.00;0.00;;;;;;;;;;6239414;22;20220;-73
2022/05/11 12:33:53;;;;;;;0.00;0.00;;;;;;;;;;6254931;22;20463;-73
2022/05/11 12:36:32;;;;;;;0.00;0.00;;;;;;;;;;6239617;22;20218;-72
2022/05/11 12:38:59;;;;;;;0.00;0.00;;;;;;;;;;6255098;23;20193;-72
2022/05/11 12:41:27;;;;;;;0.00;0.00;;;;;;;;;;6239043;22;20250;-73
2022/05/11 12:43:57;;;;;;;0.00;0.00;;;;;;;;;;6255089;23;20175;-72
2022/05/11 12:46:24;;;;;;;0.00;0.00;;;;;;;;;;6237739;22;20211;-72
2022/05/11 12:48:55;;;;;;;0.00;0.00;;;;;;;;;;6255230;23;20179;-74
2022/05/11 12:51:28;;;;;;;0.00;0.00;;;;;;;;;;6238961;22;20274;-75
2022/05/11 12:53:59;;;;;;;0.00;0.00;;;;;;;;;;6254714;22;20259;-71
2022/05/11 12:56:31;;;;;;;0.10;0.10;;;;;;;;;;6239367;23;20285;-73
2022/05/11 12:59:01;;;;;;;0.00;0.00;;;;;;;;;;6255062;23;20198;-71
2022/05/11 13:01:35;;;;;;;0.00;0.00;;;;;;;;;;6239265;22;20412;-69
2022/05/11 13:04:17;;;;;;;0.00;0.00;;;;;;;;;;6254933;22;20372;-69
2022/05/11 13:06:45;;;;;;;0.00;0.00;;;;;;;;;;6237941;23;20211;-70
2022/05/11 13:09:16;;;;;;;0.00;0.00;;;;;;;;;;6254892;23;20494;-69
2022/05/11 13:11:49;;;;;;;0.00;0.00;;;;;;;;;;6238205;22;20218;-69
2022/05/11 13:14:18;;;;;;;0.08;0.08;;;;;;;;;;6256874;23;20183;-70
2022/05/11 13:16:47;;;;;;;0.00;0.00;;;;;;;;;;6241104;22;20226;-70
2022/05/11 13:19:22;;;;;;;0.32;0.32;;;;;;;;;;6256990;23;20732;-70
2022/05/11 13:21:50;;;;;;;0.00;0.00;;;;;;;;;;6240021;23;20213;-71
2022/05/11 13:24:35;;;;;;;0.00;0.00;;;;;;;;;;6257295;23;20365;-70
2022/05/11 13:27:02;;;;;;;0.00;0.00;;;;;;;;;;6240467;22;20274;-68
2022/05/11 13:29:30;;;;;;;0.00;0.00;;;;;;;;;;6257159;23;20239;-76
2022/05/11 13:32:04;;;;;;;0.00;0.00;;;;;;;;;;6240847;22;20417;-76
2022/05/11 13:34:32;;;;;;;0.00;0.00;;;;;;;;;;6257075;23;20213;-75
2022/05/11 13:37:01;;;;;;;0.00;0.00;;;;;;;;;;6240532;22;20224;-75
2022/05/11 13:39:29;;;;;;;0.05;0.05;;;;;;;;;;6257018;23;20180;-75
2022/05/11 13:41:57;;;;;;;0.00;0.00;;;;;;;;;;6240957;22;20278;-75
2022/05/11 13:44:32;;;;;;;0.00;0.00;;;;;;;;;;6257207;23;20214;-74
2022/05/11 13:49:45;;;;;;;0.00;0.00;;;;;;;;;;6257175;23;20182;-74
2022/05/11 13:52:30;;;;;;;0.00;0.00;;;;;;;;;;6240505;22;20215;-74
2022/05/11 13:54:57;;;;;;;0.00;0.00;;;;;;;;;;6256906;23;20183;-74
2022/05/11 13:57:31;;;;;;;0.00;0.00;;;;;;;;;;6240872;22;20519;-72
2022/05/11 14:00:08;;;;;;;0.00;0.00;;;;;;;;;;6256698;23;20190;-73
2022/05/11 14:02:37;;;;;;;0.00;0.00;;;;;;;;;;6210211;23;20191;-73
2022/05/11 14:05:03;;;;;;;0.00;0.00;;;;;;;;;;6226918;23;20366;-72
2022/05/11 14:07:30;;;;;;;0.00;0.00;;;;;;;;;;6236270;23;20241;-73
2022/05/11 14:09:56;;;;;;;0.00;0.00;;;;;;;;;;6226654;23;20203;-72
2022/05/11 14:12:24;;;;;;;0.00;0.00;;;;;;;;;;6235940;23;20261;-73
2022/05/11 14:14:51;;;;;;;0.10;0.10;;;;;;;;;;6226398;23;20200;-73
2022/05/11 14:17:19;;;;;;;0.00;0.00;;;;;;;;;;6235137;23;20271;-73
2022/05/11 14:19:46;;;;;;;0.00;0.00;;;;;;;;;;6226462;23;20184;-73
2022/05/11 14:22:13;;;;;;;0.00;0.00;;;;;;;;;;6235131;23;20210;-73
2022/05/11 14:24:40;;;;;;;0.00;0.00;;;;;;;;;;6226434;23;20176;-72
2022/05/11 14:27:06;;;;;;;0.00;0.00;;;;;;;;;;6235086;23;20274;-73
2022/05/11 14:29:33;;;;;;;0.00;0.00;;;;;;;;;;6226278;23;20408;-73
2022/05/11 14:31:59;;;;;;;0.00;0.00;;;;;;;;;;6233678;23;20215;-72
2022/05/11 14:34:27;;;;;;;0.30;0.30;;;;;;;;;;6227267;23;20296;-72
2022/05/11 14:36:55;;;;;;;0.65;0.65;;;;;;;;;;6232011;23;20211;-71
2022/05/11 14:39:24;;;;;;;0.00;0.00;;;;;;;;;;6228183;23;20190;-71
2022/05/11 14:41:51;;;;;;;0.00;0.00;;;;;;;;;;6232177;23;20262;-71
2022/05/11 14:44:18;;;;;;;0.00;0.00;;;;;;;;;;6228688;23;20180;-71
2022/05/11 14:46:44;;;;;;;0.10;0.10;;;;;;;;;;6230799;23;20253;-72
2022/05/11 14:49:11;;;;;;;0.00;0.00;;;;;;;;;;6230010;23;20180;-71
2022/05/11 14:51:38;;;;;;;0.00;0.00;;;;;;;;;;6229514;23;20624;-71
2022/05/11 14:54:06;;;;;;;0.00;0.00;;;;;;;;;;6231229;23;20207;-73
2022/05/11 14:56:32;;;;;;;0.00;0.00;;;;;;;;;;6228408;23;20215;-73
2022/05/11 15:01:56;;;;;;;0.10;0.10;;;;;;;;;;6230215;23;20218;-71
2022/05/11 15:04:26;;;;;;;0.00;0.00;;;;;;;;;;6228012;23;20188;-71
2022/05/11 15:06:52;;;;;;;0.00;0.00;;;;;;;;;;6231745;23;20227;-73
2022/05/11 15:09:20;;;;;;;0.00;0.00;;;;;;;;;;6229230;23;20192;-72
2022/05/11 15:14:32;;;;;;;0.00;0.00;;;;;;;;;;6226623;23;20172;-71
2022/05/11 15:17:00;;;;;;;0.00;0.00;;;;;;;;;;6232878;23;20211;-72
2022/05/11 15:19:27;;;;;;;0.00;0.00;;;;;;;;;;6227548;23;20176;-72
2022/05/11 15:21:53;;;;;;;0.00;0.00;;;;;;;;;;6232639;23;20211;-72
2022/05/11 15:24:21;;;;;;;0.00;0.00;;;;;;;;;;6228572;23;20345;-72
2022/05/11 15:26:47;;;;;;;0.00;0.00;;;;;;;;;;6230951;23;20211;-71
2022/05/11 15:29:15;;;;;;;0.00;0.00;;;;;;;;;;6229890;23;20180;-72
2022/05/11 15:31:41;;;;;;;0.00;0.00;;;;;;;;;;6229931;23;20207;-73
2022/05/11 15:34:09;;;;;;;0.10;0.10;;;;;;;;;;6230724;23;20184;-72
2022/05/11 15:36:35;;;;;;;0.00;0.00;;;;;;;;;;6228473;23;20550;-72
2022/05/11 15:39:01;;;;;;;0.00;0.00;;;;;;;;;;6231466;23;20237;-72